Fort Logan, Colorado
Current Conditions -  °F | °C
As of 5:53 AM on Sunday 23 Nov 2014 (Local Time) from KAPA Reporting Station
Overcast Overcast  
Wind Chill: 26°   Ceiling: 6000
Heat Index: 33°   Visibility: 10mi
Dew Point: 24°   Wind: 8mph
Humidity: 70%   Direction: 60°ENE
Pressure: 29.73"   Gusts: NA
Location:  39.6516°N, 105.039°W
Report Text: KAPA 231253Z 06007KT 10SM OVC060 01/M04 A2973 RMK AO2 SNB29E38 SLP060 P0000 T00061044
Loading
Personal Weather Stations






























Interactive Weather Map New forecast layout! Learn more

10-Day Weather Forecast

Advertisements
Track Severe Weather on mobile